»·PEaware :: N866LC KPSC-KBKE

N866LC :: KPSC-KBKE

FLIGHT INFORMATION

Flight Status: Arrived
Operator: Privately registered:
United States
More flights under this callsign
Pilot: Anonymous 16594 (16594)
Aircraft: PIPER PA-28 CHEROKEE ARCHER
(PA28)
More flights by this aircraft type
Origin: KPSC Tri-Cities
United States
Destination: KBKE Baker City Mun
United States
More flights between these airports :: More routes between these airports
Route: +
File this flight plan on PilotEdge
Remarks:
Altitude:
(Current/Filed)
9,500ft
Speed:
(Current/Filed)
0kts
Departed: 08-Jul-18 03:29 PM
Arrived: 08-Jul-18 04:30 PM
Distance/Time
Traveled:
102nm/1:01
Distance/Time
To Go:
Arrived

Flight Plot

Page will automatically refresh every two minutes.

Flight plan parsing failed; only flown route is shown


Map Options




Map Legend


Flown Route
Filed Route
Departure Airport
Arrival Airport
Navaid (VOR, NDB)
Fix

Horizontal Profiles

Position Reports

Time Latitude Longitude Heading Altitude Ground
Speed
08-Jul-18 15:20 46.260039 -119.116947 64 410ft 0kts
08-Jul-18 15:21 46.260041 -119.116943 64 410ft 0kts
08-Jul-18 15:22 46.260042 -119.116939 64 410ft 0kts
08-Jul-18 15:23 46.260044 -119.116934 64 410ft 0kts
08-Jul-18 15:24 46.260045 -119.116930 64 410ft 0kts
08-Jul-18 15:25 46.260826 -119.117086 12 410ft 8kts
08-Jul-18 15:26 46.260567 -119.113821 136 410ft 16kts
08-Jul-18 15:27 46.257239 -119.109126 134 410ft 8kts
08-Jul-18 15:28 46.257932 -119.107938 6 410ft 0kts
08-Jul-18 15:29 46.258122 -119.107666 46 410ft 4kts
08-Jul-18 15:30 46.265514 -119.117047 308 533ft 79kts
08-Jul-18 15:31 46.279833 -119.142326 264 1076ft 90kts
08-Jul-18 15:32 46.266864 -119.170392 227 1553ft 81kts
08-Jul-18 15:33 46.246724 -119.180829 155 1822ft 94kts
08-Jul-18 15:34 46.223610 -119.165664 153 2350ft 80kts
08-Jul-18 15:35 46.201069 -119.154509 162 2772ft 87kts
08-Jul-18 15:36 46.176991 -119.146657 170 3350ft 89kts
08-Jul-18 15:37 46.153158 -119.136674 159 3980ft 89kts
08-Jul-18 15:38 46.128832 -119.128531 166 4913ft 90kts
08-Jul-18 15:39 46.104309 -119.120424 166 5883ft 90kts
08-Jul-18 15:40 46.079413 -119.114590 170 6801ft 91kts
08-Jul-18 15:41 46.054656 -119.106911 159 7833ft 90kts
08-Jul-18 15:42 46.031851 -119.094498 151 8610ft 90kts
08-Jul-18 15:43 46.009258 -119.078491 160 9390ft 90kts
08-Jul-18 15:44 45.985719 -119.064716 158 9923ft 100kts
08-Jul-18 15:45 45.959793 -119.049425 168 9567ft 99kts
08-Jul-18 15:46 45.931728 -119.040912 167 9524ft 113kts
08-Jul-18 15:47 45.900970 -119.027647 159 9354ft 117kts
08-Jul-18 15:48 45.871102 -119.008677 153 9599ft 120kts
08-Jul-18 15:49 45.842994 -118.981576 141 9354ft 123kts
08-Jul-18 15:50 45.813564 -118.957931 158 9461ft 118kts
08-Jul-18 15:51 45.782032 -118.941713 161 9518ft 121kts
08-Jul-18 15:52 45.748748 -118.932957 170 9582ft 121kts
08-Jul-18 15:53 45.716210 -118.920241 162 9649ft 120kts
08-Jul-18 15:54 45.684303 -118.904307 160 9281ft 120kts
08-Jul-18 15:55 45.657913 -118.881120 96 9448ft 122kts
08-Jul-18 15:56 45.656489 -118.833513 92 9259ft 118kts
08-Jul-18 15:57 45.640890 -118.793246 129 9246ft 122kts
08-Jul-18 15:58 45.622268 -118.751856 121 9487ft 125kts
08-Jul-18 15:59 45.606129 -118.707474 120 9416ft 125kts
08-Jul-18 16:00 45.591124 -118.662192 118 9590ft 127kts
08-Jul-18 16:01 45.571468 -118.618584 129 9491ft 133kts
08-Jul-18 16:02 45.550358 -118.576459 124 9358ft 128kts
08-Jul-18 16:03 45.531584 -118.532395 124 9387ft 131kts
08-Jul-18 16:04 45.511761 -118.489321 124 9224ft 127kts
08-Jul-18 16:05 45.488626 -118.451982 132 9385ft 126kts
08-Jul-18 16:06 45.466657 -118.412733 124 9551ft 127kts
08-Jul-18 16:07 45.445623 -118.372122 125 9524ft 127kts
08-Jul-18 16:08 45.426643 -118.328456 118 9517ft 133kts
08-Jul-18 16:09 45.409133 -118.282413 124 9084ft 130kts
08-Jul-18 16:10 45.390016 -118.239486 119 9094ft 124kts
08-Jul-18 16:11 45.379053 -118.192225 108 8809ft 125kts
08-Jul-18 16:12 45.369643 -118.144312 104 9012ft 126kts
08-Jul-18 16:13 45.351300 -118.103899 129 9363ft 123kts
08-Jul-18 16:14 45.328450 -118.065412 129 9442ft 131kts
08-Jul-18 16:15 45.304916 -118.027505 134 9333ft 122kts
08-Jul-18 16:16 45.283310 -117.990233 127 9531ft 120kts
08-Jul-18 16:17 45.254100 -117.965662 162 9566ft 126kts
08-Jul-18 16:18 45.221184 -117.949184 167 9393ft 125kts
08-Jul-18 16:19 45.187802 -117.934226 164 9319ft 126kts
08-Jul-18 16:20 45.155152 -117.916670 162 9507ft 125kts
08-Jul-18 16:21 45.122705 -117.896474 165 9651ft 126kts
08-Jul-18 16:22 45.090069 -117.876532 156 9505ft 128kts
08-Jul-18 16:23 45.058015 -117.854961 160 9527ft 124kts
08-Jul-18 16:24 45.023879 -117.840718 168 8457ft 127kts
08-Jul-18 16:25 44.990981 -117.826662 177 7483ft 113kts
08-Jul-18 16:26 44.960171 -117.824593 183 6697ft 108kts
08-Jul-18 16:27 44.929630 -117.823967 184 5694ft 110kts
08-Jul-18 16:28 44.898719 -117.823631 184 4576ft 110kts
08-Jul-18 16:29 44.871005 -117.826521 180 3995ft 83kts
08-Jul-18 16:30 44.851496 -117.823882 136 3653ft 64kts
08-Jul-18 16:31 44.839048 -117.809825 138 3376ft 39kts
08-Jul-18 16:32 44.835231 -117.805530 141 3376ft 8kts
08-Jul-18 16:33 44.832301 -117.802258 141 3376ft 19kts
08-Jul-18 16:34 44.831409 -117.802764 322 3376ft 10kts
08-Jul-18 16:35 44.834428 -117.806107 321 3376ft 16kts
08-Jul-18 16:36 44.835376 -117.808604 217 3376ft 9kts
08-Jul-18 16:37 44.834532 -117.807151 140 3376ft 0kts
08-Jul-18 16:38 44.834531 -117.807150 140 3376ft 0kts

Navigation Log

Ident Type
Flight plan parsing failed, navigation log unavailable